createdAt,value
2018-12-09T00:00:06.599Z,95249.35
2018-12-09T00:05:11.031Z,95245.02
2018-12-09T00:10:15.507Z,95239.80
2018-12-09T00:15:20.054Z,95250.86
2018-12-09T00:20:24.631Z,95275.11
2018-12-09T00:25:29.121Z,95248.45
2018-12-09T00:30:33.870Z,95225.94
2018-12-09T00:35:38.869Z,95238.94
2018-12-09T00:38:08.466Z,95225.26
2018-12-09T00:40:37.831Z,95213.96
2018-12-09T00:43:07.291Z,95190.98
2018-12-09T00:48:11.992Z,95177.89
2018-12-09T00:50:41.541Z,95161.51
2018-12-09T00:53:11.004Z,95157.83
2018-12-09T00:55:40.770Z,95166.84
2018-12-09T00:58:10.268Z,95160.70
2018-12-09T01:00:39.783Z,95153.75
2018-12-09T01:03:09.242Z,95148.92
2018-12-09T01:05:38.731Z,95142.62
2018-12-09T01:08:08.193Z,95132.90
2018-12-09T01:10:37.653Z,95101.63
2018-12-09T01:15:42.203Z,95090.57
2018-12-09T01:18:11.700Z,95075.69
2018-12-09T01:20:41.155Z,95067.84
2018-12-09T01:23:10.686Z,95068.52
2018-12-09T01:25:40.160Z,95084.28
2018-12-09T01:28:09.643Z,95073.11
2018-12-09T01:30:39.101Z,95070.00
2018-12-09T01:35:43.921Z,95072.13
2018-12-09T01:41:07.605Z,95042.09
2018-12-09T01:46:12.611Z,95057.00
2018-12-09T01:51:17.223Z,95061.58
2018-12-09T01:54:24.675Z,95051.38
2018-12-09T01:56:54.131Z,95049.42
2018-12-09T01:59:23.593Z,95054.70
2018-12-09T02:01:53.092Z,95047.92
2018-12-09T02:04:22.549Z,95033.91
2018-12-09T02:06:51.998Z,95014.14
2018-12-09T02:11:56.407Z,95003.30
2018-12-09T02:14:28.298Z,94984.86
2018-12-09T02:16:57.847Z,94988.27
2018-12-09T02:19:27.874Z,94992.41
2018-12-09T02:24:32.602Z,94998.06
2018-12-09T02:27:02.161Z,94998.03
2018-12-09T02:29:31.594Z,94997.59
2018-12-09T02:32:01.040Z,94985.83
2018-12-09T02:34:30.637Z,94974.77
2018-12-09T02:36:59.984Z,94971.83
2018-12-09T02:39:29.482Z,94967.98
2018-12-09T02:44:34.914Z,94983.63
2018-12-09T02:47:04.559Z,94980.80
2018-12-09T02:49:34.025Z,94993.03
2018-12-09T02:52:03.473Z,94995.16
2018-12-09T02:57:08.067Z,94996.45
2018-12-09T03:02:14.604Z,95013.88
2018-12-09T03:07:18.828Z,95015.27
2018-12-09T03:12:23.316Z,95025.58
2018-12-09T03:14:52.834Z,95020.38
2018-12-09T03:17:22.287Z,95029.86
2018-12-09T03:19:51.778Z,95043.41
2018-12-09T03:22:21.271Z,95015.61
2018-12-09T03:24:50.708Z,95023.52
2018-12-09T03:27:20.182Z,95002.80
2018-12-09T03:29:49.687Z,95006.56
2018-12-09T03:32:19.151Z,94990.12
2018-12-09T03:34:48.610Z,94989.20
2018-12-09T03:39:53.388Z,94953.89
2018-12-09T03:44:58.405Z,94933.93
2018-12-09T03:47:46.929Z,94936.86
2018-12-09T03:50:16.374Z,94931.66
2018-12-09T03:52:45.898Z,94914.67
2018-12-09T03:58:09.472Z,94897.77
2018-12-09T04:03:14.568Z,94895.77
2018-12-09T04:08:19.766Z,94878.81
2018-12-09T04:10:49.283Z,94879.66
2018-12-09T04:13:18.753Z,94866.77
2018-12-09T04:15:49.222Z,94868.59
2018-12-09T04:20:52.674Z,94873.22
2018-12-09T04:23:22.167Z,94887.79
2018-12-09T04:25:51.629Z,94894.02
2018-12-09T04:28:21.183Z,94905.06
2018-12-09T04:33:25.993Z,94917.12
2018-12-09T04:35:55.485Z,94906.32
2018-12-09T04:38:25.048Z,94918.75
2018-12-09T04:40:54.541Z,94912.16
2018-12-09T04:43:26.691Z,94917.84
2018-12-09T04:45:56.239Z,94940.23
2018-12-09T04:48:25.667Z,94937.30
2018-12-09T04:50:55.239Z,94936.34
2018-12-09T04:53:24.720Z,94951.52
2018-12-09T04:55:54.174Z,95004.08
2018-12-09T04:58:23.951Z,94996.35
2018-12-09T05:00:57.784Z,94985.28
2018-12-09T05:03:27.386Z,94959.18
2018-12-09T05:05:56.957Z,94952.47
2018-12-09T05:08:26.414Z,94977.75
2018-12-09T05:10:55.859Z,94970.48
2018-12-09T05:13:25.586Z,94996.94
2018-12-09T05:15:55.044Z,95006.49
2018-12-09T05:18:24.606Z,94994.45
2018-12-09T05:20:54.410Z,95002.66
2018-12-09T05:23:23.862Z,95003.17
2018-12-09T05:25:53.317Z,94994.64
2018-12-09T05:28:22.864Z,94981.83
2018-12-09T05:30:52.463Z,94991.44
2018-12-09T05:33:22.210Z,94996.56
2018-12-09T05:35:51.747Z,94988.36
2018-12-09T05:38:21.243Z,94992.67
2018-12-09T05:40:50.696Z,95013.45
2018-12-09T05:43:20.364Z,95030.74
2018-12-09T05:45:49.886Z,95010.48
2018-12-09T05:48:19.448Z,95018.72
2018-12-09T05:50:49.094Z,95009.80
2018-12-09T05:53:18.573Z,95017.00
2018-12-09T05:55:48.092Z,95013.56
2018-12-09T05:58:19.332Z,95004.97
2018-12-09T06:00:47.380Z,94991.26
2018-12-09T06:03:16.830Z,94984.97
2018-12-09T06:05:46.322Z,94986.41
2018-12-09T06:08:15.803Z,94994.97
2018-12-09T06:10:45.258Z,94991.94
2018-12-09T06:13:14.934Z,94990.55
2018-12-09T06:15:44.410Z,94992.50
2018-12-09T06:18:13.872Z,94993.64
2018-12-09T06:20:43.842Z,94978.63
2018-12-09T06:23:13.309Z,94987.86
2018-12-09T06:25:42.767Z,94981.59
2018-12-09T06:28:12.572Z,94974.20
2018-12-09T06:30:42.028Z,94987.16
2018-12-09T06:33:11.487Z,94987.16
2018-12-09T06:35:40.966Z,94995.70
2018-12-09T06:38:10.417Z,95021.06
2018-12-09T06:40:39.882Z,95005.61
2018-12-09T06:43:09.370Z,94991.16
2018-12-09T06:45:38.835Z,94986.84
2018-12-09T06:48:08.283Z,94984.50
2018-12-09T06:50:37.922Z,95030.81
2018-12-09T06:53:07.363Z,95049.72
2018-12-09T06:55:36.809Z,95077.16
2018-12-09T06:58:06.427Z,95158.85
2018-12-09T07:00:35.907Z,95237.87
2018-12-09T07:03:39.299Z,95240.28
2018-12-09T07:06:06.937Z,95250.30
2018-12-09T07:08:34.471Z,95252.75
2018-12-09T07:11:02.122Z,95240.13
2018-12-09T07:13:29.626Z,95225.71
2018-12-09T07:15:57.034Z,95217.84
2018-12-09T07:18:24.654Z,95225.05
2018-12-09T07:20:52.365Z,95232.27
2018-12-09T07:23:19.871Z,95226.36
2018-12-09T07:25:47.301Z,95219.64
2018-12-09T07:28:14.687Z,95211.59
2018-12-09T07:30:42.099Z,95204.88
2018-12-09T07:33:09.820Z,95200.91
2018-12-09T07:35:37.224Z,95210.92
2018-12-09T07:38:04.625Z,95209.94
2018-12-09T07:40:32.338Z,95224.36
2018-12-09T07:42:59.796Z,95218.12
2018-12-09T07:45:27.187Z,95221.73
2018-12-09T07:47:54.703Z,95219.09
2018-12-09T07:50:22.207Z,95238.77
2018-12-09T07:52:49.908Z,95231.08
2018-12-09T07:55:17.604Z,95224.97
2018-12-09T07:57:44.995Z,95218.22
2018-12-09T08:00:12.396Z,95230.53
2018-12-09T08:02:39.889Z,95240.20
2018-12-09T08:05:08.381Z,95220.19
2018-12-09T08:07:35.837Z,95214.91
2018-12-09T08:10:04.320Z,95202.92
2018-12-09T08:12:31.700Z,95215.86
2018-12-09T08:14:59.177Z,95215.03
2018-12-09T08:17:26.684Z,95208.95
2018-12-09T08:19:54.333Z,95210.58
2018-12-09T08:22:21.844Z,95219.91
2018-12-09T08:24:50.229Z,95224.00
2018-12-09T08:27:18.049Z,95223.81
2018-12-09T08:29:45.446Z,95217.05
2018-12-09T08:32:13.076Z,95231.02
2018-12-09T08:34:40.468Z,95234.29
2018-12-09T08:37:07.876Z,95230.83
2018-12-09T08:39:35.426Z,95245.93
2018-12-09T08:42:02.888Z,95240.31
2018-12-09T08:44:30.293Z,95253.93
2018-12-09T08:46:58.628Z,95230.25
2018-12-09T08:49:26.041Z,95224.93
2018-12-09T08:51:53.447Z,95235.42
2018-12-09T08:54:20.876Z,95233.71
2018-12-09T08:56:48.680Z,95234.83
2018-12-09T08:59:16.080Z,95236.95
2018-12-09T09:01:43.826Z,95229.06
2018-12-09T09:04:11.240Z,95235.64
2018-12-09T09:06:39.557Z,95225.76
2018-12-09T09:09:07.164Z,95230.68
2018-12-09T09:11:34.564Z,95231.19
2018-12-09T09:14:01.957Z,95237.91
2018-12-09T09:16:29.820Z,95252.84
2018-12-09T09:18:57.202Z,95268.30
2018-12-09T09:21:24.592Z,95272.38
2018-12-09T09:23:52.222Z,95280.58
2018-12-09T09:26:19.668Z,95283.20
2018-12-09T09:28:47.080Z,95283.71
2018-12-09T09:31:14.595Z,95298.35
2018-12-09T09:33:42.212Z,95303.25
2018-12-09T09:36:09.608Z,95295.48
2018-12-09T09:38:37.028Z,95287.91
2018-12-09T09:41:04.968Z,95281.13
2018-12-09T09:43:32.368Z,95288.47
2018-12-09T09:45:59.839Z,95301.73
2018-12-09T09:48:27.269Z,95291.30
2018-12-09T09:50:54.752Z,95319.05
2018-12-09T09:53:22.770Z,95311.41
2018-12-09T09:55:50.168Z,95310.01
2018-12-09T09:58:17.568Z,95298.63
2018-12-09T10:00:44.991Z,95320.13
2018-12-09T10:03:12.475Z,95306.73
2018-12-09T10:05:39.889Z,95314.42
2018-12-09T10:08:07.463Z,95334.10
2018-12-09T10:10:34.988Z,95308.89
2018-12-09T10:13:02.961Z,95304.73
2018-12-09T10:15:30.395Z,95321.61
2018-12-09T10:17:57.795Z,95302.10
2018-12-09T10:20:25.927Z,95300.84
2018-12-09T10:22:53.442Z,95304.16
2018-12-09T10:25:21.233Z,95286.94
2018-12-09T10:27:48.632Z,95291.53
2018-12-09T10:30:16.099Z,95314.94
2018-12-09T10:32:44.075Z,95287.30
2018-12-09T10:35:11.614Z,95307.06
2018-12-09T10:37:39.041Z,95311.70
2018-12-09T10:40:07.183Z,95308.42
2018-12-09T10:42:34.581Z,95306.14
2018-12-09T10:45:03.135Z,95307.38
2018-12-09T10:47:30.537Z,95278.23
2018-12-09T10:49:57.925Z,95320.53
2018-12-09T10:52:25.491Z,95312.91
2018-12-09T10:54:52.919Z,95299.98
2018-12-09T10:57:20.312Z,95319.55
2018-12-09T10:59:47.751Z,95285.97
2018-12-09T11:02:19.479Z,95285.47
2018-12-09T11:04:47.233Z,95254.86
2018-12-09T11:07:14.944Z,95267.17
2018-12-09T11:09:42.440Z,95259.11
2018-12-09T11:12:09.906Z,95253.34
2018-12-09T11:14:37.408Z,95258.77
2018-12-09T11:17:05.716Z,95249.68
2018-12-09T11:19:33.123Z,95230.23
2018-12-09T11:22:00.714Z,95226.75
2018-12-09T11:24:28.216Z,95228.02
2018-12-09T11:26:55.805Z,95241.65
2018-12-09T11:29:23.245Z,95234.34
2018-12-09T11:31:50.639Z,95227.72
2018-12-09T11:34:18.529Z,95214.04
2018-12-09T11:36:46.257Z,95214.17
2018-12-09T11:39:13.645Z,95195.89
2018-12-09T11:41:41.342Z,95192.19
2018-12-09T11:44:08.951Z,95185.38
2018-12-09T11:46:36.352Z,95178.89
2018-12-09T11:49:03.839Z,95189.84
2018-12-09T11:51:31.716Z,95178.73
2018-12-09T11:53:59.417Z,95154.64
2018-12-09T11:56:27.132Z,95161.47
2018-12-09T11:58:54.749Z,95143.80
2018-12-09T12:01:22.148Z,95150.52
2018-12-09T12:03:49.547Z,95138.80
2018-12-09T12:06:17.297Z,95141.05
2018-12-09T12:08:44.697Z,95141.31
2018-12-09T12:11:12.095Z,95137.30
2018-12-09T12:13:39.647Z,95142.84
2018-12-09T12:16:07.039Z,95153.00
2018-12-09T12:18:35.057Z,95143.77
2018-12-09T12:21:02.512Z,95147.42
2018-12-09T12:23:29.913Z,95146.28
2018-12-09T12:25:57.367Z,95141.52
2018-12-09T12:28:25.116Z,95142.84
2018-12-09T12:30:52.503Z,95152.55
2018-12-09T12:33:19.916Z,95139.88
2018-12-09T12:35:47.688Z,95146.14
2018-12-09T12:38:15.093Z,95152.31
2018-12-09T12:40:42.487Z,95140.98
2018-12-09T12:43:10.263Z,95150.52
2018-12-09T12:45:37.651Z,95159.85
2018-12-09T12:48:05.935Z,95151.67
2018-12-09T12:50:33.561Z,95157.98
2018-12-09T12:53:00.955Z,95216.19
2018-12-09T12:55:28.422Z,95183.36
2018-12-09T12:57:56.123Z,95176.13
2018-12-09T13:00:23.583Z,95193.91
2018-12-09T13:02:51.464Z,95199.66
2018-12-09T13:05:18.893Z,95187.94
2018-12-09T13:07:46.349Z,95173.30
2018-12-09T13:10:13.837Z,95187.34
2018-12-09T13:12:41.385Z,95180.97
2018-12-09T13:15:08.937Z,95187.90
2018-12-09T13:17:36.401Z,95171.80
2018-12-09T13:20:05.447Z,95159.97
2018-12-09T13:22:32.891Z,95171.67
2018-12-09T13:25:00.287Z,95162.51
2018-12-09T13:27:28.069Z,95145.11
2018-12-09T13:29:55.463Z,95167.30
2018-12-09T13:32:22.877Z,95184.91
2018-12-09T13:34:50.467Z,95173.88
2018-12-09T13:37:18.583Z,95175.83
2018-12-09T13:39:46.072Z,95184.06
2018-12-09T13:42:13.842Z,95163.31
2018-12-09T13:44:41.634Z,95159.20
2018-12-09T13:47:09.025Z,95170.33
2018-12-09T13:49:36.613Z,95178.18
2018-12-09T13:52:04.004Z,95174.70
2018-12-09T13:54:31.408Z,95178.61
2018-12-09T13:56:59.156Z,95169.69
2018-12-09T13:59:27.581Z,95178.17
2018-12-09T14:01:55.156Z,95190.48
2018-12-09T14:04:22.683Z,95178.93
2018-12-09T14:06:50.094Z,95178.08
2018-12-09T14:09:17.487Z,95193.67
2018-12-09T14:11:44.995Z,95198.59
2018-12-09T14:14:12.675Z,95192.64
2018-12-09T14:16:40.089Z,95194.27
2018-12-09T14:19:07.601Z,95193.45
2018-12-09T14:21:35.293Z,95186.56
2018-12-09T14:24:02.694Z,95202.37
2018-12-09T14:26:30.513Z,95199.09
2018-12-09T14:28:58.463Z,95216.38
2018-12-09T14:31:27.723Z,95205.39
2018-12-09T14:33:55.441Z,95208.70
2018-12-09T14:36:24.186Z,95206.92
2018-12-09T14:38:51.582Z,95212.69
2018-12-09T14:41:19.151Z,95215.83
2018-12-09T14:43:46.556Z,95223.22
2018-12-09T14:46:13.998Z,95198.55
2018-12-09T14:48:41.739Z,95222.92
2018-12-09T14:51:09.543Z,95230.36
2018-12-09T14:53:37.176Z,95214.44
2018-12-09T14:56:04.809Z,95221.19
2018-12-09T14:58:32.207Z,95219.56
2018-12-09T15:01:00.001Z,95229.45
2018-12-09T15:03:27.483Z,95261.38
2018-12-09T15:05:54.875Z,95217.14
2018-12-09T15:08:23.089Z,95256.62
2018-12-09T15:10:50.789Z,95243.77
2018-12-09T15:13:18.547Z,95238.67
2018-12-09T15:15:45.947Z,95243.30
2018-12-09T15:18:13.557Z,95259.09
2018-12-09T15:20:41.761Z,95251.39
2018-12-09T15:23:09.355Z,95254.50
2018-12-09T15:25:36.855Z,95241.55
2018-12-09T15:28:04.649Z,95242.38
2018-12-09T15:30:32.047Z,95244.55
2018-12-09T15:32:59.460Z,95242.76
2018-12-09T15:35:26.860Z,95240.67
2018-12-09T15:37:55.184Z,95275.68
2018-12-09T15:40:22.635Z,95255.81
2018-12-09T15:42:50.412Z,95288.59
2018-12-09T15:45:18.212Z,95270.39
2018-12-09T15:47:45.748Z,95277.84
2018-12-09T15:50:13.156Z,95294.47
2018-12-09T15:52:40.549Z,95265.43
2018-12-09T15:55:08.164Z,95280.89
2018-12-09T15:57:35.592Z,95288.45
2018-12-09T16:00:04.290Z,95275.34
2018-12-09T16:02:31.742Z,95286.02
2018-12-09T16:04:59.149Z,95280.62
2018-12-09T16:07:27.036Z,95270.77
2018-12-09T16:09:54.684Z,95266.69
2018-12-09T16:12:23.276Z,95266.20
2018-12-09T16:14:50.672Z,95271.31
2018-12-09T16:17:18.401Z,95274.75
2018-12-09T16:19:46.049Z,95263.91
2018-12-09T16:22:13.447Z,95266.20
2018-12-09T16:24:41.033Z,95265.84
2018-12-09T16:27:08.465Z,95268.48
2018-12-09T16:29:35.855Z,95268.12
2018-12-09T16:32:03.329Z,95264.32
2018-12-09T16:34:30.726Z,95270.90
2018-12-09T16:36:58.308Z,95279.58
2018-12-09T16:39:25.850Z,95272.48
2018-12-09T16:41:53.253Z,95274.94
2018-12-09T16:44:21.233Z,95281.34
2018-12-09T16:46:48.656Z,95278.55
2018-12-09T16:49:16.052Z,95287.90
2018-12-09T16:51:44.191Z,95289.55
2018-12-09T16:54:11.741Z,95284.44
2018-12-09T16:56:39.140Z,95288.86
2018-12-09T16:59:06.918Z,95295.58
2018-12-09T17:01:34.738Z,95293.59
2018-12-09T17:04:02.133Z,95277.16
2018-12-09T17:06:29.722Z,95301.16
2018-12-09T17:08:57.433Z,95312.69
2018-12-09T17:11:24.836Z,95310.37
2018-12-09T17:13:52.623Z,95296.10
2018-12-09T17:16:20.133Z,95324.04
2018-12-09T17:18:47.531Z,95310.92
2018-12-09T17:21:14.976Z,95308.31
2018-12-09T17:23:42.557Z,95316.36
2018-12-09T17:26:10.461Z,95319.16
2018-12-09T17:28:38.156Z,95317.84
2018-12-09T17:31:05.758Z,95320.47
2018-12-09T17:33:33.158Z,95325.42
2018-12-09T17:36:00.558Z,95324.44
2018-12-09T17:38:27.979Z,95330.52
2018-12-09T17:40:55.447Z,95331.19
2018-12-09T17:43:23.671Z,95334.48
2018-12-09T17:45:51.216Z,95342.36
2018-12-09T17:48:18.623Z,95349.28
2018-12-09T17:50:46.027Z,95344.49
2018-12-09T17:53:13.451Z,95353.69
2018-12-09T17:55:40.848Z,95353.53
2018-12-09T17:58:08.268Z,95361.11
2018-12-09T18:00:35.688Z,95368.33
2018-12-09T18:03:03.074Z,95373.89
2018-12-09T18:05:30.480Z,95367.16
2018-12-09T18:07:58.212Z,95368.96
2018-12-09T18:10:25.614Z,95374.87
2018-12-09T18:12:53.084Z,95376.52
2018-12-09T18:15:21.907Z,95386.05
2018-12-09T18:17:49.306Z,95399.86
2018-12-09T18:20:16.701Z,95398.20
2018-12-09T18:22:44.338Z,95410.38
2018-12-09T18:25:12.285Z,95400.02
2018-12-09T18:27:39.687Z,95411.20
2018-12-09T18:30:07.172Z,95396.09
2018-12-09T18:32:35.298Z,95410.20
2018-12-09T18:35:02.829Z,95413.50
2018-12-09T18:37:30.285Z,95425.83
2018-12-09T18:39:57.751Z,95424.20
2018-12-09T18:42:25.151Z,95432.41
2018-12-09T18:44:52.906Z,95439.78
2018-12-09T18:47:20.336Z,95444.07
2018-12-09T18:49:47.926Z,95449.83
2018-12-09T18:52:15.392Z,95447.86
2018-12-09T18:54:42.801Z,95458.19
2018-12-09T18:57:10.333Z,95474.30
2018-12-09T18:59:37.888Z,95476.43
2018-12-09T19:02:05.421Z,95479.22
2018-12-09T19:04:33.323Z,95485.98
2018-12-09T19:07:00.877Z,95507.01
2018-12-09T19:09:28.357Z,95490.89
2018-12-09T19:11:56.113Z,95496.81
2018-12-09T19:14:23.799Z,95504.70
2018-12-09T19:16:51.382Z,95505.36
2018-12-09T19:19:18.795Z,95509.62
2018-12-09T19:21:46.291Z,95517.84
2018-12-09T19:24:13.714Z,95525.07
2018-12-09T19:26:41.160Z,95523.09
2018-12-09T19:29:08.635Z,95537.40
2018-12-09T19:31:36.055Z,95553.33
2018-12-09T19:34:03.625Z,95549.88
2018-12-09T19:36:31.166Z,95546.91
2018-12-09T19:38:59.307Z,95558.23
2018-12-09T19:41:26.735Z,95556.61
2018-12-09T19:43:54.443Z,95558.39
2018-12-09T19:46:21.850Z,95556.77
2018-12-09T19:48:49.339Z,95565.46
2018-12-09T19:51:16.975Z,95569.59
2018-12-09T19:53:44.376Z,95570.91
2018-12-09T19:56:12.499Z,95559.08
2018-12-09T19:58:40.024Z,95573.34
2018-12-09T20:01:07.439Z,95575.01
2018-12-09T20:03:35.222Z,95581.89
2018-12-09T20:06:02.919Z,95571.72
2018-12-09T20:08:30.612Z,95586.83
2018-12-09T20:10:58.024Z,95592.25
2018-12-09T20:13:25.671Z,95582.89
2018-12-09T20:15:53.169Z,95591.09
2018-12-09T20:18:20.572Z,95600.79
2018-12-09T20:20:48.159Z,95607.20
2018-12-09T20:23:16.348Z,95607.20
2018-12-09T20:25:44.040Z,95622.16
2018-12-09T20:28:11.736Z,95624.09
2018-12-09T20:30:39.244Z,95624.59
2018-12-09T20:33:06.921Z,95635.45
2018-12-09T20:35:34.498Z,95635.77
2018-12-09T20:38:01.900Z,95648.75
2018-12-09T20:40:29.363Z,95647.94
2018-12-09T20:42:56.908Z,95643.80
2018-12-09T20:45:24.304Z,95650.22
2018-12-09T20:47:51.700Z,95659.77
2018-12-09T20:50:19.373Z,95664.67
2018-12-09T20:52:47.464Z,95662.05
2018-12-09T20:55:14.893Z,95669.94
2018-12-09T20:57:42.354Z,95669.95
2018-12-09T21:00:09.880Z,95680.66
2018-12-09T21:02:37.265Z,95686.07
2018-12-09T21:05:05.141Z,95690.02
2018-12-09T21:07:32.571Z,95694.77
2018-12-09T21:09:59.958Z,95695.61
2018-12-09T21:12:27.526Z,95694.30
2018-12-09T21:14:54.929Z,95703.16
2018-12-09T21:17:22.333Z,95698.56
2018-12-09T21:19:49.785Z,95709.58
2018-12-09T21:22:17.188Z,95706.45
2018-12-09T21:24:44.744Z,95720.24
2018-12-09T21:27:12.241Z,95713.02
2018-12-09T21:29:39.629Z,95718.27
2018-12-09T21:32:07.023Z,95715.33
2018-12-09T21:34:34.617Z,95721.40
2018-12-09T21:37:02.408Z,95722.05
2018-12-09T21:39:29.810Z,95724.83
2018-12-09T21:41:57.226Z,95726.95
2018-12-09T21:44:25.153Z,95735.50
2018-12-09T21:46:52.534Z,95733.87
2018-12-09T21:49:21.177Z,95726.80
2018-12-09T21:51:48.872Z,95740.91
2018-12-09T21:54:16.379Z,95739.28
2018-12-09T21:56:44.238Z,95747.16
2018-12-09T21:59:11.731Z,95757.17
2018-12-09T22:01:39.354Z,95764.56
2018-12-09T22:04:06.805Z,95771.14
2018-12-09T22:06:34.231Z,95781.65
2018-12-09T22:09:02.055Z,95776.23
2018-12-09T22:11:29.648Z,95792.83
2018-12-09T22:13:57.239Z,95800.23
2018-12-09T22:16:24.689Z,95811.05
2018-12-09T22:18:52.143Z,95814.81
2018-12-09T22:21:20.295Z,95824.31
2018-12-09T22:23:47.688Z,95824.80
2018-12-09T22:26:15.515Z,95859.91
2018-12-09T22:28:42.912Z,95858.31
2018-12-09T22:31:10.403Z,95875.46
2018-12-09T22:33:37.883Z,95853.38
2018-12-09T22:36:05.587Z,95855.41
2018-12-09T22:38:33.275Z,95862.97
2018-12-09T22:41:00.869Z,95891.50
2018-12-09T22:43:28.257Z,95897.86
2018-12-09T22:45:56.111Z,95887.26
2018-12-09T22:48:23.583Z,95877.84
2018-12-09T22:50:50.980Z,95887.22
2018-12-09T22:53:18.377Z,95879.59
2018-12-09T22:55:46.653Z,95879.31
2018-12-09T22:58:14.170Z,95882.80
2018-12-09T23:00:45.241Z,95888.13
2018-12-09T23:03:12.833Z,95893.44
2018-12-09T23:05:40.331Z,95905.57
2018-12-09T23:08:08.075Z,95912.31
2018-12-09T23:10:36.496Z,95914.66
2018-12-09T23:13:03.959Z,95922.23
2018-12-09T23:15:31.416Z,95919.48
2018-12-09T23:17:58.869Z,95918.70
2018-12-09T23:20:26.390Z,95920.87
2018-12-09T23:22:53.987Z,95923.67
2018-12-09T23:25:21.426Z,95925.70
2018-12-09T23:27:48.823Z,95924.28
2018-12-09T23:30:17.023Z,95930.35
2018-12-09T23:32:44.580Z,95938.08
2018-12-09T23:35:11.967Z,95932.69
2018-12-09T23:37:39.367Z,95932.38
2018-12-09T23:40:07.199Z,95940.31
2018-12-09T23:42:34.606Z,95928.69
2018-12-09T23:45:02.067Z,95932.66
2018-12-09T23:47:29.487Z,95927.94
2018-12-09T23:49:56.983Z,95925.84
2018-12-09T23:52:24.379Z,95932.41
2018-12-09T23:54:51.958Z,95941.45
2018-12-09T23:57:19.506Z,95944.44
2018-12-09T23:59:46.903Z,95949.55
